createdAt,value
2023-04-26T00:00:13.624Z,72.40
2023-04-26T00:02:45.709Z,71.00
2023-04-26T00:05:14.773Z,71.00
2023-04-26T00:08:18.027Z,70.70
2023-04-26T00:10:51.731Z,70.20
2023-04-26T00:13:32.860Z,69.50
2023-04-26T00:16:04.253Z,68.90
2023-04-26T00:18:34.527Z,68.90
2023-04-26T00:21:06.684Z,69.40
2023-04-26T00:23:38.993Z,69.50
2023-04-26T00:26:17.796Z,69.60
2023-04-26T00:28:45.598Z,69.60
2023-04-26T00:31:18.007Z,69.40
2023-04-26T00:33:45.659Z,69.50
2023-04-26T00:36:14.491Z,69.50
2023-04-26T00:38:53.317Z,69.60
2023-04-26T00:41:22.696Z,69.50
2023-04-26T00:43:50.084Z,69.60
2023-04-26T00:46:21.054Z,69.60
2023-04-26T00:51:40.863Z,69.50
2023-04-26T00:54:11.739Z,69.20
2023-04-26T00:57:03.483Z,69.20
2023-04-26T00:59:37.600Z,69.40
2023-04-26T01:02:13.768Z,69.30
2023-04-26T01:04:46.023Z,69.10
2023-04-26T01:07:18.823Z,69.10
2023-04-26T01:10:03.665Z,69.20
2023-04-26T01:15:29.952Z,69.10
2023-04-26T01:18:05.775Z,68.70
2023-04-26T01:20:36.269Z,68.40
2023-04-26T01:23:09.465Z,68.30
2023-04-26T01:25:42.771Z,68.70
2023-04-26T01:28:17.972Z,68.50
2023-04-26T01:30:47.655Z,68.90
2023-04-26T01:33:23.216Z,69.00
2023-04-26T01:35:54.082Z,68.80
2023-04-26T01:38:26.390Z,68.40
2023-04-26T01:40:56.391Z,68.60
2023-04-26T01:43:33.602Z,68.60
2023-04-26T01:46:04.205Z,68.80
2023-04-26T01:48:36.598Z,69.00
2023-04-26T01:51:04.956Z,68.80
2023-04-26T01:53:32.945Z,68.40
2023-04-26T01:56:11.908Z,68.40
2023-04-26T01:58:42.650Z,68.60
2023-04-26T02:01:12.415Z,68.80
2023-04-26T02:03:45.878Z,68.70
2023-04-26T02:06:39.431Z,68.50
2023-04-26T02:09:23.912Z,68.70
2023-04-26T02:11:54.931Z,69.00
2023-04-26T02:14:22.612Z,69.00
2023-04-26T02:16:52.422Z,68.90
2023-04-26T02:19:23.560Z,68.90
2023-04-26T02:22:03.807Z,68.90
2023-04-26T02:24:36.546Z,69.00
2023-04-26T02:27:13.589Z,68.80
2023-04-26T02:29:59.513Z,68.50
2023-04-26T02:32:27.371Z,68.40
2023-04-26T02:34:58.924Z,68.40
2023-04-26T02:37:31.910Z,68.40
2023-04-26T02:40:09.426Z,68.40
2023-04-26T02:42:42.839Z,68.20
2023-04-26T02:45:11.134Z,68.10
2023-04-26T02:47:45.727Z,67.80
2023-04-26T02:50:13.323Z,67.80
2023-04-26T02:52:50.343Z,67.80
2023-04-26T02:55:20.263Z,67.70
2023-04-26T02:58:02.737Z,67.80
2023-04-26T03:00:40.684Z,67.80
2023-04-26T03:03:18.598Z,67.80
2023-04-26T03:05:56.079Z,67.80
2023-04-26T03:08:41.926Z,67.70
2023-04-26T03:11:11.847Z,67.60
2023-04-26T03:13:48.009Z,68.00
2023-04-26T03:16:20.102Z,68.00
2023-04-26T03:18:56.165Z,68.30
2023-04-26T03:21:39.966Z,68.30
2023-04-26T03:24:07.888Z,68.50
2023-04-26T03:26:44.911Z,68.50
2023-04-26T03:29:14.952Z,68.40
2023-04-26T03:31:45.830Z,68.50
2023-04-26T03:34:16.651Z,68.40
2023-04-26T03:36:44.684Z,68.40
2023-04-26T03:39:12.672Z,68.60
2023-04-26T03:41:45.526Z,68.60
2023-04-26T03:44:14.458Z,68.60
2023-04-26T03:46:49.354Z,68.60
2023-04-26T03:49:21.559Z,68.50
2023-04-26T03:52:08.684Z,68.90
2023-04-26T03:54:36.553Z,68.90
2023-04-26T03:57:06.802Z,69.10
2023-04-26T03:59:43.890Z,68.80
2023-04-26T04:02:15.379Z,69.00
2023-04-26T04:05:11.586Z,68.90
2023-04-26T04:07:39.379Z,68.90
2023-04-26T04:10:21.284Z,69.40
2023-04-26T04:12:53.347Z,69.30
2023-04-26T04:15:41.309Z,69.70
2023-04-26T04:18:15.017Z,70.00
2023-04-26T04:20:52.862Z,70.10
2023-04-26T04:23:30.931Z,70.00
2023-04-26T04:25:58.925Z,69.70
2023-04-26T04:29:11.623Z,69.70
2023-04-26T04:31:37.571Z,69.70
2023-04-26T04:34:05.921Z,69.50
2023-04-26T04:36:36.059Z,69.30
2023-04-26T04:39:20.965Z,69.10
2023-04-26T04:41:54.257Z,69.20
2023-04-26T04:44:26.473Z,69.30
2023-04-26T04:46:57.573Z,69.30
2023-04-26T04:49:30.812Z,69.50
2023-04-26T04:52:06.825Z,69.40
2023-04-26T04:54:54.491Z,69.40
2023-04-26T04:57:25.978Z,69.50
2023-04-26T04:59:58.412Z,69.40
2023-04-26T05:02:36.151Z,69.40
2023-04-26T05:05:10.561Z,69.30
2023-04-26T05:07:40.564Z,69.40
2023-04-26T05:10:11.835Z,69.40
2023-04-26T05:12:59.646Z,69.50
2023-04-26T05:15:29.161Z,69.60
2023-04-26T05:18:19.590Z,69.80
2023-04-26T05:20:59.301Z,69.90
2023-04-26T05:23:31.038Z,70.00
2023-04-26T05:26:16.304Z,70.00
2023-04-26T05:28:49.654Z,69.80
2023-04-26T05:31:37.986Z,69.20
2023-04-26T05:34:08.338Z,68.90
2023-04-26T05:40:05.640Z,68.80
2023-04-26T05:43:01.281Z,68.40
2023-04-26T05:45:32.746Z,68.20
2023-04-26T05:48:18.710Z,68.00
2023-04-26T05:51:08.759Z,67.80
2023-04-26T05:53:57.997Z,67.40
2023-04-26T05:56:51.204Z,67.20
2023-04-26T05:59:23.253Z,66.90
2023-04-26T06:02:02.212Z,66.70
2023-04-26T06:07:47.990Z,66.40
2023-04-26T06:10:39.868Z,66.00
2023-04-26T06:13:17.513Z,65.90
2023-04-26T06:16:20.072Z,65.60
2023-04-26T06:22:01.319Z,65.00
2023-04-26T06:24:47.433Z,65.00
2023-04-26T06:30:50.403Z,64.60
2023-04-26T06:33:42.506Z,64.50
2023-04-26T06:36:38.607Z,64.10
2023-04-26T06:39:42.362Z,63.50
2023-04-26T06:42:20.312Z,63.00
2023-04-26T06:48:41.976Z,62.00
2023-04-26T06:54:14.383Z,60.30
2023-04-26T07:03:36.960Z,58.70
2023-04-26T07:06:44.033Z,58.50
2023-04-26T07:09:43.388Z,58.00
2023-04-26T07:19:44.516Z,58.00
2023-04-26T07:22:41.803Z,57.90
2023-04-26T07:25:52.370Z,58.10
2023-04-26T07:36:13.742Z,57.30
2023-04-26T07:38:57.644Z,57.60
2023-04-26T07:41:59.874Z,57.20
2023-04-26T07:44:57.612Z,56.80
2023-04-26T07:51:02.546Z,57.30
2023-04-26T07:53:59.367Z,57.40
2023-04-26T07:56:39.393Z,56.90
2023-04-26T07:59:34.817Z,57.20
2023-04-26T08:02:15.264Z,57.20
2023-04-26T08:06:10.284Z,56.90
2023-04-26T08:09:01.759Z,56.80
2023-04-26T08:11:37.388Z,56.50
2023-04-26T08:14:37.005Z,56.50
2023-04-26T08:17:55.414Z,56.10
2023-04-26T08:21:53.085Z,55.90
2023-04-26T08:24:36.269Z,55.30
2023-04-26T08:28:11.673Z,55.30
2023-04-26T08:31:17.787Z,55.30
2023-04-26T08:33:53.014Z,54.70
2023-04-26T08:36:43.560Z,54.60
2023-04-26T08:39:47.276Z,54.90
2023-04-26T08:44:04.531Z,53.70
2023-04-26T08:46:27.326Z,53.40
2023-04-26T08:49:54.457Z,53.20
2023-04-26T08:52:38.450Z,52.80
2023-04-26T08:56:30.235Z,52.60
2023-04-26T08:59:21.119Z,52.30
2023-04-26T09:05:54.913Z,52.50
2023-04-26T09:08:37.285Z,52.70
2023-04-26T09:11:48.351Z,53.50
2023-04-26T09:17:49.986Z,53.90
2023-04-26T09:21:10.771Z,53.90
2023-04-26T09:24:16.948Z,53.80
2023-04-26T09:37:10.398Z,53.90
2023-04-26T09:40:19.803Z,53.90
2023-04-26T09:47:15.064Z,54.10
2023-04-26T09:50:06.841Z,54.30
2023-04-26T09:52:47.237Z,54.30
2023-04-26T09:55:55.132Z,54.20
2023-04-26T10:02:54.474Z,54.40
2023-04-26T10:20:08.351Z,56.00
2023-04-26T10:22:52.129Z,56.40
2023-04-26T10:25:56.412Z,57.10
2023-04-26T10:28:58.979Z,57.10
2023-04-26T10:32:32.034Z,57.40
2023-04-26T10:39:38.950Z,57.40
2023-04-26T10:42:42.326Z,57.30
2023-04-26T10:46:09.275Z,57.20
2023-04-26T10:48:52.845Z,57.20
2023-04-26T10:54:58.425Z,57.40
2023-04-26T10:58:00.927Z,57.30
2023-04-26T11:02:06.658Z,57.60
2023-04-26T11:04:31.906Z,58.00
2023-04-26T11:07:41.103Z,58.20
2023-04-26T11:13:34.018Z,58.80
2023-04-26T11:16:38.820Z,58.90
2023-04-26T11:35:31.202Z,62.90
2023-04-26T11:38:51.741Z,63.70
2023-04-26T11:41:38.179Z,64.30
2023-04-26T11:44:42.256Z,64.60
2023-04-26T11:47:49.005Z,63.90
2023-04-26T11:50:24.296Z,63.70
2023-04-26T11:53:07.509Z,63.60
2023-04-26T12:02:50.597Z,64.50
2023-04-26T12:09:13.204Z,64.50
2023-04-26T12:15:09.148Z,64.30
2023-04-26T12:21:31.460Z,65.70
2023-04-26T12:24:51.408Z,66.00
2023-04-26T12:27:45.789Z,65.60
2023-04-26T12:30:30.349Z,64.90
2023-04-26T12:33:31.901Z,64.90
2023-04-26T12:39:49.057Z,65.50
2023-04-26T12:42:48.676Z,65.40
2023-04-26T12:46:38.770Z,65.30
2023-04-26T12:57:03.751Z,66.40
2023-04-26T12:59:53.898Z,67.10
2023-04-26T13:06:11.838Z,66.90
2023-04-26T13:09:23.407Z,67.50
2023-04-26T13:12:24.480Z,67.50
2023-04-26T13:15:32.773Z,67.70
2023-04-26T13:18:50.273Z,68.10
2023-04-26T13:21:45.077Z,68.70
2023-04-26T13:25:45.995Z,70.00
2023-04-26T13:28:01.055Z,69.80
2023-04-26T13:31:08.252Z,68.90
2023-04-26T13:34:30.655Z,69.30
2023-04-26T13:44:11.652Z,69.80
2023-04-26T13:46:43.687Z,70.00
2023-04-26T13:49:38.361Z,70.40
2023-04-26T13:59:11.593Z,72.20
2023-04-26T14:02:35.894Z,72.60
2023-04-26T14:13:33.011Z,69.80
2023-04-26T14:21:13.950Z,71.00
2023-04-26T14:25:25.492Z,71.90
2023-04-26T14:27:41.839Z,71.90
2023-04-26T14:30:46.756Z,72.70
2023-04-26T14:33:45.099Z,73.50
2023-04-26T14:40:05.675Z,74.00
2023-04-26T14:42:52.191Z,74.10
2023-04-26T14:45:42.875Z,73.90
2023-04-26T14:48:56.013Z,74.40
2023-04-26T14:51:54.248Z,74.30
2023-04-26T14:54:22.993Z,74.30
2023-04-26T14:57:35.487Z,74.40
2023-04-26T15:00:18.261Z,74.20
2023-04-26T15:06:13.596Z,73.70
2023-04-26T15:08:54.810Z,73.30
2023-04-26T15:11:47.135Z,72.80
2023-04-26T15:14:25.704Z,72.70
2023-04-26T15:17:16.906Z,72.10
2023-04-26T15:19:55.135Z,71.70
2023-04-26T15:22:26.092Z,71.10
2023-04-26T15:28:25.308Z,71.10
2023-04-26T15:31:18.009Z,70.80
2023-04-26T15:33:55.600Z,69.70
2023-04-26T15:36:42.045Z,69.20
2023-04-26T15:39:41.159Z,69.00
2023-04-26T15:42:22.729Z,67.80
2023-04-26T15:45:05.433Z,67.60
2023-04-26T15:48:06.257Z,66.60
2023-04-26T15:51:38.183Z,66.60
2023-04-26T15:54:01.961Z,66.30
2023-04-26T15:56:47.627Z,66.50
2023-04-26T15:59:46.700Z,66.80
2023-04-26T16:03:00.114Z,67.90
2023-04-26T16:06:23.587Z,68.50
2023-04-26T16:09:02.316Z,69.40
2023-04-26T16:11:48.368Z,69.90
2023-04-26T16:14:51.036Z,70.90
2023-04-26T16:17:26.484Z,70.40
2023-04-26T16:20:10.827Z,70.00
2023-04-26T16:26:59.009Z,71.10
2023-04-26T16:29:35.767Z,72.80
2023-04-26T16:32:43.505Z,73.80
2023-04-26T16:35:44.405Z,74.10
2023-04-26T16:38:22.943Z,74.20
2023-04-26T16:41:45.801Z,74.60
2023-04-26T16:44:24.809Z,74.50
2023-04-26T16:47:33.148Z,74.40
2023-04-26T16:50:15.528Z,74.20
2023-04-26T16:52:48.428Z,74.70
2023-04-26T16:55:17.927Z,74.80
2023-04-26T16:57:51.410Z,75.20
2023-04-26T17:00:34.956Z,75.20
2023-04-26T17:03:12.525Z,75.50
2023-04-26T17:05:56.026Z,75.20
2023-04-26T17:11:26.239Z,76.00
2023-04-26T17:14:12.016Z,76.30
2023-04-26T17:16:52.191Z,76.50
2023-04-26T17:19:44.941Z,76.40
2023-04-26T17:22:26.895Z,76.50
2023-04-26T17:25:26.716Z,76.70
2023-04-26T17:27:59.703Z,76.90
2023-04-26T17:30:32.580Z,77.10
2023-04-26T17:33:12.718Z,77.40
2023-04-26T17:35:49.999Z,77.70
2023-04-26T17:38:49.097Z,77.80
2023-04-26T17:41:17.886Z,78.20
2023-04-26T17:43:56.112Z,78.50
2023-04-26T17:46:26.798Z,78.90
2023-04-26T17:48:57.335Z,79.50
2023-04-26T17:51:28.353Z,80.00
2023-04-26T17:53:56.589Z,80.60
2023-04-26T17:56:26.708Z,81.10
2023-04-26T17:59:00.381Z,81.20
2023-04-26T18:01:28.442Z,81.50
2023-04-26T18:03:58.027Z,81.40
2023-04-26T18:06:27.665Z,81.30
2023-04-26T18:08:55.327Z,81.30
2023-04-26T18:11:27.555Z,81.30
2023-04-26T18:13:57.997Z,81.20
2023-04-26T18:16:29.910Z,80.90
2023-04-26T18:19:25.485Z,80.70
2023-04-26T18:22:01.980Z,80.60
2023-04-26T18:24:32.256Z,80.30
2023-04-26T18:27:06.347Z,80.30
2023-04-26T18:29:35.085Z,79.90
2023-04-26T18:32:11.010Z,79.90
2023-04-26T18:34:49.046Z,80.00
2023-04-26T18:37:29.598Z,79.80
2023-04-26T18:40:05.207Z,79.70
2023-04-26T18:42:35.874Z,79.40
2023-04-26T18:45:03.658Z,79.20
2023-04-26T18:47:48.033Z,79.30
2023-04-26T18:50:18.747Z,79.40
2023-04-26T18:52:46.986Z,79.30
2023-04-26T18:55:14.816Z,78.90
2023-04-26T18:57:54.960Z,78.60
2023-04-26T19:00:22.800Z,78.50
2023-04-26T19:02:56.192Z,78.30
2023-04-26T19:05:23.968Z,78.00
2023-04-26T19:07:54.730Z,77.90
2023-04-26T19:10:57.328Z,77.60
2023-04-26T19:13:23.750Z,77.50
2023-04-26T19:16:07.524Z,77.10
2023-04-26T19:19:15.360Z,77.00
2023-04-26T19:21:43.502Z,76.70
2023-04-26T19:24:11.112Z,76.40
2023-04-26T19:26:51.099Z,76.50
2023-04-26T19:29:20.353Z,76.40
2023-04-26T19:32:08.253Z,76.10
2023-04-26T19:34:39.139Z,76.00
2023-04-26T19:37:13.111Z,75.70
2023-04-26T19:39:41.224Z,75.30
2023-04-26T19:42:48.596Z,74.90
2023-04-26T19:45:29.820Z,74.50
2023-04-26T19:48:00.211Z,74.60
2023-04-26T19:50:31.107Z,74.80
2023-04-26T19:53:00.996Z,74.90
2023-04-26T19:56:00.730Z,75.00
2023-04-26T19:58:27.176Z,74.90
2023-04-26T20:01:19.429Z,75.10
2023-04-26T20:04:02.751Z,75.30
2023-04-26T20:06:33.196Z,75.40
2023-04-26T20:09:04.496Z,75.30
2023-04-26T20:11:46.079Z,75.30
2023-04-26T20:14:16.663Z,75.20
2023-04-26T20:16:46.342Z,75.30
2023-04-26T20:19:18.543Z,75.30
2023-04-26T20:21:53.267Z,75.20
2023-04-26T20:24:28.423Z,75.60
2023-04-26T20:26:56.654Z,75.50
2023-04-26T20:29:27.164Z,75.60
2023-04-26T20:34:40.070Z,76.30
2023-04-26T20:37:15.196Z,76.50
2023-04-26T20:39:43.098Z,76.70
2023-04-26T20:42:10.675Z,76.80
2023-04-26T20:44:55.223Z,76.90
2023-04-26T20:47:26.290Z,76.70
2023-04-26T20:52:51.531Z,76.40
2023-04-26T20:55:23.109Z,76.60
2023-04-26T20:57:54.257Z,76.40
2023-04-26T21:00:24.387Z,76.40
2023-04-26T21:06:02.265Z,76.20
2023-04-26T21:08:37.053Z,76.40
2023-04-26T21:11:08.954Z,76.40
2023-04-26T21:13:52.158Z,76.60
2023-04-26T21:16:27.075Z,76.90
2023-04-26T21:19:07.515Z,77.20
2023-04-26T21:21:37.710Z,77.60
2023-04-26T21:24:09.112Z,77.60
2023-04-26T21:26:49.242Z,77.50
2023-04-26T21:29:21.782Z,77.00
2023-04-26T21:31:49.775Z,77.00
2023-04-26T21:34:31.349Z,77.00
2023-04-26T21:37:11.613Z,77.00
2023-04-26T21:39:42.708Z,76.80
2023-04-26T21:42:14.708Z,76.80
2023-04-26T21:44:47.750Z,76.60
2023-04-26T21:47:15.556Z,76.60
2023-04-26T21:49:43.647Z,76.50
2023-04-26T21:52:11.771Z,76.40
2023-04-26T21:54:43.364Z,76.50
2023-04-26T21:57:13.909Z,76.60
2023-04-26T22:02:28.397Z,76.70
2023-04-26T22:05:03.329Z,76.80
2023-04-26T22:07:34.259Z,76.90
2023-04-26T22:10:06.968Z,76.90
2023-04-26T22:12:44.941Z,77.00
2023-04-26T22:15:14.261Z,77.00
2023-04-26T22:18:04.960Z,77.10
2023-04-26T22:20:33.291Z,77.10
2023-04-26T22:23:12.227Z,77.10
2023-04-26T22:25:40.120Z,77.00
2023-04-26T22:28:14.642Z,77.10
2023-04-26T22:30:46.218Z,77.00
2023-04-26T22:33:14.071Z,77.10
2023-04-26T22:35:45.085Z,77.00
2023-04-26T22:38:32.020Z,77.10
2023-04-26T22:41:16.889Z,77.20
2023-04-26T22:43:57.273Z,77.30
2023-04-26T22:46:29.652Z,77.50
2023-04-26T22:49:13.411Z,77.40
2023-04-26T22:51:57.289Z,77.50
2023-04-26T22:54:39.747Z,77.60
2023-04-26T22:57:11.369Z,77.70
2023-04-26T23:00:01.130Z,77.90
2023-04-26T23:03:13.536Z,77.90
2023-04-26T23:05:41.622Z,78.10
2023-04-26T23:08:11.733Z,78.10
2023-04-26T23:10:40.716Z,78.20
2023-04-26T23:13:11.246Z,78.20
2023-04-26T23:15:39.617Z,78.50
2023-04-26T23:18:07.539Z,78.60
2023-04-26T23:20:52.556Z,78.80
2023-04-26T23:23:31.014Z,78.70
2023-04-26T23:26:01.473Z,78.80
2023-04-26T23:28:29.452Z,78.90
2023-04-26T23:31:02.672Z,78.80
2023-04-26T23:33:37.587Z,78.80
2023-04-26T23:36:05.494Z,78.80
2023-04-26T23:38:34.856Z,79.00
2023-04-26T23:41:05.708Z,79.20
2023-04-26T23:43:34.018Z,79.10
2023-04-26T23:46:07.171Z,79.20
2023-04-26T23:48:36.076Z,79.20
2023-04-26T23:51:06.507Z,79.40
2023-04-26T23:53:44.448Z,79.30
2023-04-26T23:56:22.017Z,79.40
2023-04-26T23:58:52.470Z,79.50
